createdAt,value
2018-07-28T00:00:37.978Z,997.66
2018-07-28T00:01:52.942Z,997.67
2018-07-28T00:03:07.645Z,997.66
2018-07-28T00:04:21.327Z,997.67
2018-07-28T00:05:35.891Z,997.68
2018-07-28T00:06:49.853Z,997.66
2018-07-28T00:08:04.558Z,997.67
2018-07-28T00:09:19.144Z,997.65
2018-07-28T00:10:33.361Z,997.59
2018-07-28T00:11:47.730Z,997.66
2018-07-28T00:13:01.961Z,997.66
2018-07-28T00:14:16.658Z,997.69
2018-07-28T00:15:31.583Z,997.69
2018-07-28T00:16:45.796Z,997.66
2018-07-28T00:18:00.063Z,997.67
2018-07-28T00:19:14.752Z,997.66
2018-07-28T00:20:29.182Z,997.65
2018-07-28T00:21:43.469Z,997.63
2018-07-28T00:22:57.645Z,997.65
2018-07-28T00:24:11.828Z,997.61
2018-07-28T00:25:26.028Z,997.6
2018-07-28T00:26:40.717Z,997.61
2018-07-28T00:27:55.177Z,997.64
2018-07-28T00:29:09.123Z,997.63
2018-07-28T00:30:23.831Z,997.63
2018-07-28T00:31:38.035Z,997.62
2018-07-28T00:32:51.467Z,997.61
2018-07-28T00:34:05.669Z,997.61
2018-07-28T00:35:20.223Z,997.59
2018-07-28T00:36:34.953Z,997.58
2018-07-28T00:37:50.214Z,997.58
2018-07-28T00:39:04.687Z,997.57
2018-07-28T00:40:18.630Z,997.57
2018-07-28T00:41:33.395Z,997.54
2018-07-28T00:43:09.607Z,997.53
2018-07-28T00:44:24.068Z,997.51
2018-07-28T00:45:38.241Z,997.51
2018-07-28T00:46:52.969Z,997.49
2018-07-28T00:48:07.403Z,997.48
2018-07-28T00:49:22.095Z,997.41
2018-07-28T00:50:37.297Z,997.39
2018-07-28T00:51:51.383Z,997.4
2018-07-28T00:53:06.078Z,997.37
2018-07-28T00:54:20.014Z,997.42
2018-07-28T00:55:34.693Z,997.35
2018-07-28T00:56:48.888Z,997.35
2018-07-28T00:58:03.119Z,997.34
2018-07-28T00:59:17.784Z,997.29
2018-07-28T01:00:32.204Z,997.32
2018-07-28T01:01:46.390Z,997.32
2018-07-28T01:03:01.105Z,997.33
2018-07-28T01:04:15.840Z,997.28
2018-07-28T01:05:30.531Z,997.23
2018-07-28T01:06:44.696Z,997.26
2018-07-28T01:07:58.866Z,997.2
2018-07-28T01:09:13.866Z,997.19
2018-07-28T01:10:28.356Z,997.18
2018-07-28T01:11:42.999Z,997.22
2018-07-28T01:12:58.250Z,997.2
2018-07-28T01:14:12.416Z,997.21
2018-07-28T01:16:18.642Z,997.17
2018-07-28T01:17:33.334Z,997.19
2018-07-28T01:18:47.255Z,997.16
2018-07-28T01:20:01.894Z,997.15
2018-07-28T01:21:16.358Z,997.17
2018-07-28T01:22:31.351Z,997.12
2018-07-28T01:23:46.146Z,997.12
2018-07-28T01:25:00.312Z,997.08
2018-07-28T01:26:15.041Z,997.08
2018-07-28T01:27:29.227Z,997.08
2018-07-28T01:28:43.671Z,997.1
2018-07-28T01:29:57.815Z,997.07
2018-07-28T01:31:12.216Z,997.05
2018-07-28T01:32:26.407Z,997.07
2018-07-28T01:33:41.181Z,997.07
2018-07-28T01:34:56.157Z,997.06
2018-07-28T01:36:10.850Z,997.05
2018-07-28T01:37:25.541Z,997.03
2018-07-28T01:38:39.894Z,997.01
2018-07-28T01:39:54.854Z,996.99
2018-07-28T01:41:09.094Z,996.98
2018-07-28T01:42:23.507Z,996.96
2018-07-28T01:43:37.688Z,996.96
2018-07-28T01:44:52.403Z,996.97
2018-07-28T01:46:06.772Z,996.95
2018-07-28T01:47:21.471Z,996.95
2018-07-28T01:48:35.986Z,996.97
2018-07-28T01:49:50.148Z,996.92
2018-07-28T01:51:05.014Z,996.95
2018-07-28T01:52:19.469Z,996.94
2018-07-28T01:53:34.440Z,996.91
2018-07-28T01:54:48.971Z,996.88
2018-07-28T01:56:03.593Z,996.85
2018-07-28T01:57:18.044Z,996.81
2018-07-28T01:58:32.725Z,996.82
2018-07-28T01:59:47.133Z,996.8
2018-07-28T02:01:02.033Z,996.81
2018-07-28T02:02:16.962Z,996.77
2018-07-28T02:03:31.393Z,996.73
2018-07-28T02:04:45.450Z,996.73
2018-07-28T02:06:00.497Z,996.71
2018-07-28T02:07:15.442Z,996.69
2018-07-28T02:08:30.130Z,996.7
2018-07-28T02:09:44.933Z,996.68
2018-07-28T02:10:59.355Z,996.68
2018-07-28T02:12:14.055Z,996.66
2018-07-28T02:13:28.455Z,996.66
2018-07-28T02:14:42.880Z,996.67
2018-07-28T02:15:56.784Z,996.7
2018-07-28T02:17:11.502Z,996.73
2018-07-28T02:18:26.507Z,996.7
2018-07-28T02:19:40.695Z,996.68
2018-07-28T02:20:55.631Z,996.65
2018-07-28T02:22:10.245Z,996.65
2018-07-28T02:23:25.198Z,996.62
2018-07-28T02:24:40.253Z,996.62
2018-07-28T02:25:54.673Z,996.62
2018-07-28T02:27:08.826Z,996.63
2018-07-28T02:28:23.526Z,996.58
2018-07-28T02:29:37.973Z,996.57
2018-07-28T02:30:52.951Z,996.65
2018-07-28T02:32:07.158Z,996.59
2018-07-28T02:33:21.621Z,996.62
2018-07-28T02:34:36.555Z,996.56
2018-07-28T02:35:51.519Z,996.56
2018-07-28T02:37:06.232Z,996.58
2018-07-28T02:38:20.438Z,996.61
2018-07-28T02:39:35.146Z,996.55
2018-07-28T02:40:49.588Z,996.54
2018-07-28T02:42:04.317Z,996.53
2018-07-28T02:43:19.047Z,996.52
2018-07-28T02:44:33.782Z,996.55
2018-07-28T02:45:47.903Z,996.56
2018-07-28T02:47:02.634Z,996.56
2018-07-28T02:48:16.818Z,996.57
2018-07-28T02:49:31.039Z,996.58
2018-07-28T02:50:45.200Z,996.53
2018-07-28T02:51:59.906Z,996.55
2018-07-28T02:53:14.963Z,996.54
2018-07-28T02:54:29.132Z,996.61
2018-07-28T02:56:00.414Z,996.59
2018-07-28T02:57:14.590Z,996.59
2018-07-28T02:58:28.529Z,996.6
2018-07-28T02:59:42.981Z,996.59
2018-07-28T03:00:57.909Z,996.55
2018-07-28T03:02:12.144Z,996.56
2018-07-28T03:03:26.848Z,996.53
2018-07-28T03:04:41.556Z,996.5
2018-07-28T03:05:56.008Z,996.5
2018-07-28T03:07:10.210Z,996.53
2018-07-28T03:08:24.417Z,996.54
2018-07-28T03:09:39.107Z,996.53
2018-07-28T03:10:53.315Z,996.52
2018-07-28T03:12:08.023Z,996.48
2018-07-28T03:13:22.444Z,996.49
2018-07-28T03:14:36.617Z,996.47
2018-07-28T03:15:51.080Z,996.44
2018-07-28T03:17:05.521Z,996.41
2018-07-28T03:18:20.228Z,996.42
2018-07-28T03:19:35.156Z,996.41
2018-07-28T03:20:50.077Z,996.41
2018-07-28T03:22:04.841Z,996.39
2018-07-28T03:23:19.288Z,996.37
2018-07-28T03:24:33.729Z,996.4
2018-07-28T03:25:47.915Z,996.33
2018-07-28T03:27:02.401Z,996.34
2018-07-28T03:28:16.986Z,996.29
2018-07-28T03:29:31.144Z,996.31
2018-07-28T03:30:45.849Z,996.28
2018-07-28T03:31:59.902Z,996.24
2018-07-28T03:33:14.608Z,996.18
2018-07-28T03:34:29.545Z,996.15
2018-07-28T03:35:45.145Z,996.22
2018-07-28T03:37:00.078Z,996.18
2018-07-28T03:38:14.488Z,996.22
2018-07-28T03:39:29.167Z,996.26
2018-07-28T03:40:43.362Z,996.21
2018-07-28T03:41:57.925Z,996.24
2018-07-28T03:43:12.343Z,996.23
2018-07-28T03:44:26.767Z,996.24
2018-07-28T03:45:41.217Z,996.26
2018-07-28T03:46:55.646Z,996.24
2018-07-28T03:48:10.276Z,996.26
2018-07-28T03:49:24.346Z,996.25
2018-07-28T03:50:39.197Z,996.27
2018-07-28T03:51:53.339Z,996.24
2018-07-28T03:53:08.024Z,996.25
2018-07-28T03:54:22.444Z,996.24
2018-07-28T03:55:36.868Z,996.24
2018-07-28T03:56:51.063Z,996.2
2018-07-28T03:58:05.526Z,996.19
2018-07-28T03:59:20.385Z,996.16
2018-07-28T04:00:34.079Z,996.17
2018-07-28T04:01:48.660Z,996.17
2018-07-28T04:03:03.348Z,996.16
2018-07-28T04:04:17.529Z,996.17
2018-07-28T04:05:32.297Z,996.18
2018-07-28T04:06:48.664Z,996.19
2018-07-28T04:08:03.139Z,996.19
2018-07-28T04:09:17.346Z,996.2
2018-07-28T04:10:32.222Z,996.2
2018-07-28T04:11:46.805Z,996.21
2018-07-28T04:13:01.354Z,996.27
2018-07-28T04:14:15.811Z,996.3
2018-07-28T04:15:31.426Z,996.31
2018-07-28T04:16:45.576Z,996.27
2018-07-28T04:18:00.222Z,996.27
2018-07-28T04:19:15.273Z,996.27
2018-07-28T04:20:30.174Z,996.31
2018-07-28T04:21:44.654Z,996.33
2018-07-28T04:22:58.984Z,996.34
2018-07-28T04:24:13.808Z,996.31
2018-07-28T04:25:28.228Z,996.32
2018-07-28T04:26:43.037Z,996.29
2018-07-28T04:27:57.769Z,996.32
2018-07-28T04:29:12.225Z,996.35
2018-07-28T04:30:27.375Z,996.34
2018-07-28T04:31:41.767Z,996.39
2018-07-28T04:32:57.502Z,996.43
2018-07-28T04:34:12.257Z,996.51
2018-07-28T04:35:26.690Z,996.55
2018-07-28T04:36:41.560Z,996.59
2018-07-28T04:37:56.636Z,996.66
2018-07-28T04:39:11.043Z,996.54
2018-07-28T04:40:25.906Z,996.45
2018-07-28T04:41:40.263Z,996.36
2018-07-28T04:42:54.452Z,996.37
2018-07-28T04:44:09.560Z,996.35
2018-07-28T04:45:24.238Z,996.4
2018-07-28T04:46:39.013Z,996.47
2018-07-28T04:47:53.302Z,996.46
2018-07-28T04:49:07.748Z,996.48
2018-07-28T04:50:21.926Z,996.45
2018-07-28T04:51:36.772Z,996.38
2018-07-28T04:52:51.203Z,996.39
2018-07-28T04:54:05.711Z,996.36
2018-07-28T04:55:20.648Z,996.37
2018-07-28T04:56:34.577Z,996.42
2018-07-28T04:57:49.003Z,996.37
2018-07-28T04:59:03.703Z,996.41
2018-07-28T05:00:18.464Z,996.42
2018-07-28T05:01:32.915Z,996.42
2018-07-28T05:02:47.335Z,996.35
2018-07-28T05:04:01.291Z,996.25
2018-07-28T05:05:16.284Z,996.26
2018-07-28T05:06:30.259Z,996.24
2018-07-28T05:07:45.270Z,996.23
2018-07-28T05:08:59.646Z,996.2
2018-07-28T05:10:14.477Z,996.24
2018-07-28T05:11:29.187Z,996.27
2018-07-28T05:12:43.134Z,996.32
2018-07-28T05:13:57.837Z,996.26
2018-07-28T05:15:12.352Z,996.28
2018-07-28T05:16:26.949Z,996.27
2018-07-28T05:17:41.781Z,996.24
2018-07-28T05:18:55.846Z,996.23
2018-07-28T05:20:10.539Z,996.23
2018-07-28T05:21:24.475Z,996.27
2018-07-28T05:22:38.918Z,996.23
2018-07-28T05:23:53.618Z,996.27
2018-07-28T05:25:08.130Z,996.31
2018-07-28T05:26:22.820Z,996.32
2018-07-28T05:27:37.250Z,996.29
2018-07-28T05:28:51.987Z,996.22
2018-07-28T05:30:06.702Z,996.21
2018-07-28T05:31:20.914Z,996.13
2018-07-28T05:32:35.685Z,996.15
2018-07-28T05:33:49.949Z,996.2
2018-07-28T05:35:04.980Z,996.15
2018-07-28T05:36:19.683Z,996.13
2018-07-28T05:37:34.272Z,996.08
2018-07-28T05:38:48.864Z,996.12
2018-07-28T05:40:03.942Z,996.14
2018-07-28T05:41:19.219Z,996.12
2018-07-28T05:42:34.054Z,996.13
2018-07-28T05:43:49.042Z,996.17
2018-07-28T05:45:03.747Z,996.14
2018-07-28T05:46:18.493Z,996.12
2018-07-28T05:47:33.480Z,996.1
2018-07-28T05:48:47.418Z,996.11
2018-07-28T05:50:01.483Z,996.15
2018-07-28T05:51:16.863Z,996.05
2018-07-28T05:52:31.113Z,996.06
2018-07-28T05:53:44.833Z,996.07
2018-07-28T05:54:59.535Z,996.1
2018-07-28T05:56:13.599Z,996.11
2018-07-28T05:57:27.768Z,996.13
2018-07-28T05:58:41.504Z,996.15
2018-07-28T05:59:56.210Z,996.16
2018-07-28T06:01:10.936Z,996.13
2018-07-28T06:02:25.711Z,996.1
2018-07-28T06:03:40.519Z,996.06
2018-07-28T06:04:54.969Z,996.04
2018-07-28T06:06:09.934Z,996
2018-07-28T06:07:25.006Z,996.03
2018-07-28T06:08:39.732Z,996.01
2018-07-28T06:09:54.458Z,995.96
2018-07-28T06:11:09.233Z,995.93
2018-07-28T06:12:24.195Z,995.92
2018-07-28T06:14:06.134Z,995.91
2018-07-28T06:15:20.948Z,995.93
2018-07-28T06:16:35.547Z,995.98
2018-07-28T06:17:50.009Z,995.93
2018-07-28T06:19:03.725Z,995.88
2018-07-28T06:20:17.993Z,995.87
2018-07-28T06:21:32.840Z,995.89
2018-07-28T06:22:47.331Z,995.85
2018-07-28T06:24:02.078Z,995.89
2018-07-28T06:25:16.266Z,995.89
2018-07-28T06:26:30.717Z,995.89
2018-07-28T06:27:45.194Z,995.89
2018-07-28T06:28:59.712Z,995.86
2018-07-28T06:30:14.059Z,995.86
2018-07-28T06:31:28.856Z,995.87
2018-07-28T06:32:44.049Z,995.89
2018-07-28T06:33:59.129Z,995.93
2018-07-28T06:35:13.600Z,995.9
2018-07-28T06:36:28.339Z,995.87
2018-07-28T06:37:42.816Z,995.87
2018-07-28T06:38:57.291Z,995.86
2018-07-28T06:40:11.752Z,995.91
2018-07-28T06:41:26.448Z,995.97
2018-07-28T06:42:41.023Z,996.11
2018-07-28T06:43:54.755Z,996.18
2018-07-28T06:45:09.627Z,996.27
2018-07-28T06:46:55.556Z,996.26
2018-07-28T06:48:09.814Z,996.19
2018-07-28T06:49:24.260Z,996.16
2018-07-28T06:50:38.562Z,996.18
2018-07-28T06:51:54.716Z,996.26
2018-07-28T06:53:11.535Z,996.35
2018-07-28T06:54:28.517Z,996.28
2018-07-28T06:55:45.209Z,996.26
2018-07-28T06:57:01.968Z,996.25
2018-07-28T06:58:18.683Z,996.3
2018-07-28T06:59:36.638Z,996.36
2018-07-28T07:00:53.213Z,996.36
2018-07-28T07:02:10.031Z,996.33
2018-07-28T07:03:26.519Z,996.32
2018-07-28T07:04:40.559Z,996.31
2018-07-28T07:05:55.651Z,996.33
2018-07-28T07:07:10.311Z,996.34
2018-07-28T07:08:24.267Z,996.37
2018-07-28T07:09:39.059Z,996.49
2018-07-28T07:10:53.585Z,996.69
2018-07-28T07:12:07.795Z,996.91
2018-07-28T07:13:22.708Z,997.08
2018-07-28T07:14:37.400Z,997.17
2018-07-28T07:15:52.080Z,997.24
2018-07-28T07:17:07.028Z,997.26
2018-07-28T07:18:22.371Z,997.2
2018-07-28T07:19:36.979Z,997.22
2018-07-28T07:20:51.670Z,997.35
2018-07-28T07:22:05.880Z,997.32
2018-07-28T07:23:20.093Z,997.25
2018-07-28T07:24:35.095Z,997.13
2018-07-28T07:25:49.479Z,997.17
2018-07-28T07:27:03.918Z,997.27
2018-07-28T07:28:18.783Z,997.34
2018-07-28T07:29:33.206Z,997.32
2018-07-28T07:30:47.422Z,997.19
2018-07-28T07:32:01.876Z,997.17
2018-07-28T07:33:16.401Z,997.18
2018-07-28T07:34:31.443Z,997.23
2018-07-28T07:35:45.659Z,997.22
2018-07-28T07:37:00.135Z,997.18
2018-07-28T07:38:14.745Z,997.19
2018-07-28T07:39:29.197Z,997.22
2018-07-28T07:40:43.186Z,997.19
2018-07-28T07:41:57.524Z,997.2
2018-07-28T07:43:12.979Z,997.2
2018-07-28T07:44:27.446Z,997.21
2018-07-28T07:45:41.642Z,997.22
2018-07-28T07:46:55.610Z,997.25
2018-07-28T07:48:10.131Z,997.25
2018-07-28T07:49:24.986Z,997.22
2018-07-28T07:50:38.971Z,997.21
2018-07-28T07:51:53.739Z,997.35
2018-07-28T07:53:18.067Z,997.28
2018-07-28T07:54:33.087Z,997.28
2018-07-28T07:55:47.814Z,997.31
2018-07-28T07:57:02.540Z,997.25
2018-07-28T07:58:17.642Z,997.25
2018-07-28T07:59:32.078Z,997.28
2018-07-28T08:00:46.779Z,997.26
2018-07-28T08:02:01.759Z,997.3
2018-07-28T08:03:16.442Z,997.23
2018-07-28T08:04:31.259Z,997.26
2018-07-28T08:05:46.382Z,997.22
2018-07-28T08:07:01.059Z,997.25
2018-07-28T08:08:15.786Z,997.21
2018-07-28T08:09:30.584Z,997.33
2018-07-28T08:10:44.859Z,997.29
2018-07-28T08:11:59.385Z,997.23
2018-07-28T08:13:13.657Z,997.21
2018-07-28T08:14:28.010Z,997.17
2018-07-28T08:15:42.089Z,997.12
2018-07-28T08:16:56.977Z,997.15
2018-07-28T08:18:11.666Z,997.12
2018-07-28T08:19:26.775Z,997.09
2018-07-28T08:20:41.322Z,997.07
2018-07-28T08:21:55.915Z,997.09
2018-07-28T08:23:10.192Z,997.06
2018-07-28T08:24:25.316Z,997.05
2018-07-28T08:25:52.878Z,997.04
2018-07-28T08:27:07.079Z,996.99
2018-07-28T08:28:21.872Z,997.05
2018-07-28T08:29:36.078Z,997
2018-07-28T08:30:50.796Z,996.99
2018-07-28T08:32:05.317Z,996.96
2018-07-28T08:33:20.114Z,996.97
2018-07-28T08:34:35.412Z,996.99
2018-07-28T08:35:49.892Z,997.01
2018-07-28T08:37:04.624Z,997.03
2018-07-28T08:38:19.316Z,997.03
2018-07-28T08:39:34.281Z,996.99
2018-07-28T08:40:48.751Z,996.96
2018-07-28T08:42:02.943Z,996.95
2018-07-28T08:43:17.131Z,996.99
2018-07-28T08:44:31.224Z,997.02
2018-07-28T08:45:45.691Z,997.07
2018-07-28T08:47:00.133Z,997.03
2018-07-28T08:48:14.109Z,997.07
2018-07-28T08:49:29.335Z,997.07
2018-07-28T08:50:43.992Z,997.11
2018-07-28T08:51:57.981Z,997.1
2018-07-28T08:53:12.437Z,997.14
2018-07-28T08:54:27.453Z,997.2
2018-07-28T08:55:41.672Z,997.21
2018-07-28T08:56:56.430Z,997.24
2018-07-28T08:58:11.635Z,997.22
2018-07-28T08:59:25.689Z,997.24
2018-07-28T09:00:40.420Z,997.24
2018-07-28T09:01:54.802Z,997.27
2018-07-28T09:03:09.273Z,997.25
2018-07-28T09:04:23.893Z,997.27
2018-07-28T09:05:38.334Z,997.27
2018-07-28T09:06:53.406Z,997.25
2018-07-28T09:08:08.079Z,997.21
2018-07-28T09:09:22.286Z,997.21
2018-07-28T09:10:37.043Z,997.2
2018-07-28T09:11:51.323Z,997.19
2018-07-28T09:13:05.794Z,997.18
2018-07-28T09:14:20.323Z,997.21
2018-07-28T09:15:34.633Z,997.23
2018-07-28T09:16:48.799Z,997.29
2018-07-28T09:18:03.307Z,997.28
2018-07-28T09:19:18.124Z,997.28
2018-07-28T09:20:32.560Z,997.31
2018-07-28T09:21:47.895Z,997.33
2018-07-28T09:23:02.823Z,997.33
2018-07-28T09:24:17.481Z,997.43
2018-07-28T09:25:32.416Z,997.43
2018-07-28T09:26:47.395Z,997.45
2018-07-28T09:28:01.616Z,997.49
2018-07-28T09:29:16.630Z,997.52
2018-07-28T09:30:31.171Z,997.56
2018-07-28T09:32:25.996Z,997.57
2018-07-28T09:33:40.837Z,997.56
2018-07-28T09:34:55.708Z,997.55
2018-07-28T09:36:09.927Z,997.53
2018-07-28T09:37:24.178Z,997.56
2018-07-28T09:38:38.756Z,997.59
2018-07-28T09:39:53.241Z,997.53
2018-07-28T09:41:07.920Z,997.55
2018-07-28T09:42:22.652Z,997.55
2018-07-28T09:43:36.911Z,997.59
2018-07-28T09:44:51.675Z,997.57
2018-07-28T09:46:06.239Z,997.6
2018-07-28T09:47:23.643Z,997.55
2018-07-28T09:48:38.097Z,997.52
2018-07-28T09:49:52.045Z,997.51
2018-07-28T09:51:06.818Z,997.54
2018-07-28T09:54:08.149Z,997.7
2018-07-28T09:55:22.976Z,997.7
2018-07-28T09:56:37.961Z,997.71
2018-07-28T09:57:52.190Z,997.73
2018-07-28T09:59:07.140Z,997.69
2018-07-28T10:00:21.886Z,997.75
2018-07-28T10:01:35.993Z,997.74
2018-07-28T10:02:50.963Z,997.8
2018-07-28T10:04:05.690Z,997.74
2018-07-28T10:05:20.031Z,997.79
2018-07-28T10:06:34.745Z,997.81
2018-07-28T10:07:49.719Z,997.81
2018-07-28T10:09:04.242Z,997.77
2018-07-28T10:10:18.715Z,997.78
2018-07-28T10:11:33.636Z,997.74
2018-07-28T10:12:47.866Z,997.65
2018-07-28T10:14:02.396Z,997.68
2018-07-28T10:15:17.365Z,997.64
2018-07-28T10:16:32.007Z,997.65
2018-07-28T10:17:46.199Z,997.71
2018-07-28T10:19:00.902Z,997.72
2018-07-28T10:20:15.082Z,997.7
2018-07-28T10:21:30.207Z,997.67
2018-07-28T10:22:44.933Z,997.65
2018-07-28T10:23:59.710Z,997.62
2018-07-28T10:25:14.645Z,997.62
2018-07-28T10:26:29.176Z,997.57
2018-07-28T10:27:43.668Z,997.56
2018-07-28T10:29:03.880Z,997.58
2018-07-28T10:30:18.218Z,997.59
2018-07-28T10:31:32.902Z,997.58
2018-07-28T10:32:47.158Z,997.59
2018-07-28T10:34:02.181Z,997.56
2018-07-28T10:35:17.112Z,997.53
2018-07-28T10:36:31.492Z,997.51
2018-07-28T10:37:46.422Z,997.49
2018-07-28T10:39:01.127Z,997.48
2018-07-28T10:40:16.358Z,997.49
2018-07-28T10:41:31.149Z,997.41
2018-07-28T10:42:45.604Z,997.37
2018-07-28T10:44:00.060Z,997.36
2018-07-28T10:45:14.768Z,997.35
2018-07-28T10:46:29.392Z,997.38
2018-07-28T10:47:43.879Z,997.39
2018-07-28T10:48:58.756Z,997.42
2018-07-28T10:50:13.244Z,997.45
2018-07-28T10:51:27.747Z,997.5
2018-07-28T10:52:42.520Z,997.52
2018-07-28T10:53:57.012Z,997.49
2018-07-28T10:55:11.423Z,997.57
2018-07-28T10:56:26.040Z,997.6
2018-07-28T10:57:40.305Z,997.62
2018-07-28T10:58:54.861Z,997.59
2018-07-28T11:00:09.449Z,997.65
2018-07-28T11:01:23.605Z,997.58
2018-07-28T11:02:50.792Z,997.55
2018-07-28T11:05:59.081Z,997.65
2018-07-28T11:07:13.756Z,997.63
2018-07-28T11:08:28.474Z,997.6
2018-07-28T11:09:42.728Z,997.58
2018-07-28T11:11:30.526Z,997.58
2018-07-28T11:12:44.691Z,997.57
2018-07-28T11:13:58.679Z,997.59
2018-07-28T11:15:12.652Z,997.52
2018-07-28T11:16:27.431Z,997.53
2018-07-28T11:17:41.943Z,997.57
2018-07-28T11:18:56.589Z,997.55
2018-07-28T11:20:12.091Z,997.53
2018-07-28T11:21:27.115Z,997.56
2018-07-28T11:22:41.904Z,997.56
2018-07-28T11:23:57.095Z,997.61
2018-07-28T11:25:12.196Z,997.59
2018-07-28T11:26:27.054Z,997.54
2018-07-28T11:27:41.951Z,997.5
2018-07-28T11:28:56.158Z,997.51
2018-07-28T11:30:10.626Z,997.52
2018-07-28T11:31:25.702Z,997.5
2018-07-28T11:32:40.099Z,997.45
2018-07-28T11:33:54.226Z,997.45
2018-07-28T11:35:10.065Z,997.44
2018-07-28T11:36:24.442Z,997.51
2018-07-28T11:37:40.114Z,997.51
2018-07-28T11:38:56.754Z,997.47
2018-07-28T11:40:11.820Z,997.41
2018-07-28T11:41:26.579Z,997.43
2018-07-28T11:42:41.771Z,997.42
2018-07-28T11:43:56.009Z,997.36
2018-07-28T11:45:11.065Z,997.37
2018-07-28T11:46:26.098Z,997.35
2018-07-28T11:47:41.053Z,997.32
2018-07-28T11:48:55.756Z,997.36
2018-07-28T11:50:10.258Z,997.37
2018-07-28T11:51:25.093Z,997.32
2018-07-28T11:52:39.868Z,997.26
2018-07-28T11:53:54.298Z,997.38
2018-07-28T11:55:08.587Z,997.32
2018-07-28T11:56:23.911Z,997.31
2018-07-28T11:57:38.734Z,997.33
2018-07-28T11:58:53.905Z,997.36
2018-07-28T12:00:09.290Z,997.32
2018-07-28T12:01:24.004Z,997.34
2018-07-28T12:02:39.846Z,997.29
2018-07-28T12:03:54.702Z,997.26
2018-07-28T12:05:08.648Z,997.25
2018-07-28T12:06:23.132Z,997.25
2018-07-28T12:07:37.376Z,997.27
2018-07-28T12:08:52.916Z,997.31
2018-07-28T12:10:07.183Z,997.24
2018-07-28T12:11:22.190Z,997.19
2018-07-28T12:12:36.725Z,997.19
2018-07-28T12:13:51.733Z,997.18
2018-07-28T12:15:06.992Z,997.2
2018-07-28T12:16:22.194Z,997.18
2018-07-28T12:17:36.590Z,997.22
2018-07-28T12:18:51.348Z,997.25
2018-07-28T12:20:05.851Z,997.26
2018-07-28T12:21:20.074Z,997.19
2018-07-28T12:22:34.294Z,997.31
2018-07-28T12:23:48.765Z,997.29
2018-07-28T12:25:04.105Z,997.29
2018-07-28T12:26:18.596Z,997.33
2018-07-28T12:27:33.358Z,997.28
2018-07-28T12:28:47.311Z,997.23
2018-07-28T12:30:02.097Z,997.28
2018-07-28T12:31:16.278Z,997.33
2018-07-28T12:32:32.170Z,997.34
2018-07-28T12:33:47.411Z,997.15
2018-07-28T12:35:02.013Z,997.25
2018-07-28T12:36:16.691Z,997.2
2018-07-28T12:37:31.641Z,997.24
2018-07-28T12:38:45.814Z,997.25
2018-07-28T12:40:01.446Z,997.28
2018-07-28T12:41:16.138Z,997.31
2018-07-28T12:42:31.086Z,997.37
2018-07-28T12:43:45.065Z,997.38
2018-07-28T12:45:05.930Z,997.28
2018-07-28T12:46:20.648Z,997.25
2018-07-28T12:47:35.636Z,997.16
2018-07-28T12:48:50.473Z,997.15
2018-07-28T12:50:04.652Z,997.18
2018-07-28T12:51:19.378Z,997.16
2018-07-28T12:52:34.113Z,997.26
2018-07-28T12:53:48.275Z,997.24
2018-07-28T12:55:02.444Z,997.23
2018-07-28T12:56:17.359Z,997.27
2018-07-28T12:57:32.341Z,997.24
2018-07-28T12:58:46.837Z,997.25
2018-07-28T13:00:00.800Z,997.22
2018-07-28T13:01:15.597Z,997.29
2018-07-28T13:02:30.302Z,997.28
2018-07-28T13:03:44.785Z,997.13
2018-07-28T13:04:59.904Z,997.24
2018-07-28T13:06:14.529Z,997.28
2018-07-28T13:07:29.334Z,997.31
2018-07-28T13:08:43.822Z,997.3
2018-07-28T13:09:58.576Z,997.36
2018-07-28T13:11:14.236Z,997.34
2018-07-28T13:12:29.339Z,997.27
2018-07-28T13:13:44.638Z,997.28
2018-07-28T13:14:59.710Z,997.3
2018-07-28T13:16:14.501Z,997.34
2018-07-28T13:17:29.030Z,997.36
2018-07-28T13:18:43.507Z,997.32
2018-07-28T13:19:58.569Z,997.25
2018-07-28T13:21:13.177Z,997.15
2018-07-28T13:22:28.309Z,997.18
2018-07-28T13:23:43.157Z,997.12
2018-07-28T13:24:58.008Z,997.09
2018-07-28T13:26:12.996Z,997.01
2018-07-28T13:27:28.033Z,997.06
2018-07-28T13:28:42.727Z,997.05
2018-07-28T13:29:57.547Z,997.05
2018-07-28T13:31:11.973Z,996.98
2018-07-28T13:32:26.416Z,996.92
2018-07-28T13:33:40.583Z,996.81
2018-07-28T13:34:54.566Z,996.81
2018-07-28T13:36:09.078Z,996.9
2018-07-28T13:37:23.112Z,996.94
2018-07-28T13:38:38.541Z,996.95
2018-07-28T13:39:53.062Z,997.02
2018-07-28T13:41:07.272Z,996.96
2018-07-28T13:42:21.959Z,996.93
2018-07-28T13:43:36.448Z,996.99
2018-07-28T13:44:50.914Z,997.04
2018-07-28T13:46:05.281Z,997.15
2018-07-28T13:47:19.719Z,997.23
2018-07-28T13:48:34.482Z,997.14
2018-07-28T13:49:48.933Z,997.28
2018-07-28T13:51:03.434Z,997.23
2018-07-28T13:52:18.422Z,997.29
2018-07-28T13:53:32.414Z,997.44
2018-07-28T13:54:47.922Z,997.43
2018-07-28T13:56:01.885Z,997.66
2018-07-28T13:57:16.635Z,997.76
2018-07-28T13:58:30.833Z,997.79
2018-07-28T13:59:45.584Z,997.68
2018-07-28T14:01:00.041Z,997.24
2018-07-28T14:02:14.780Z,997.4
2018-07-28T14:03:29.532Z,997.47
2018-07-28T14:04:44.229Z,997.59
2018-07-28T14:05:58.674Z,997.71
2018-07-28T14:07:14.241Z,997.66
2018-07-28T14:08:28.902Z,997.69
2018-07-28T14:09:43.139Z,997.62
2018-07-28T14:10:57.044Z,997.7
2018-07-28T14:12:11.761Z,997.84
2018-07-28T14:13:27.285Z,997.93
2018-07-28T14:14:41.720Z,998
2018-07-28T14:15:56.120Z,998.02
2018-07-28T14:17:11.092Z,998.1
2018-07-28T14:18:26.071Z,998.07
2018-07-28T14:19:41.701Z,998.05
2018-07-28T14:20:55.909Z,997.99
2018-07-28T14:22:10.126Z,997.96
2018-07-28T14:23:24.697Z,997.91
2018-07-28T14:24:39.727Z,997.85
2018-07-28T14:25:54.580Z,997.83
2018-07-28T14:27:09.172Z,997.81
2018-07-28T14:28:23.817Z,997.8
2018-07-28T14:29:38.577Z,997.8
2018-07-28T14:30:53.043Z,997.82
2018-07-28T14:32:07.807Z,997.82
2018-07-28T14:33:22.723Z,997.87
2018-07-28T14:34:37.160Z,997.89
2018-07-28T14:35:51.355Z,997.87
2018-07-28T14:37:06.067Z,997.91
2018-07-28T14:38:21.090Z,997.87
2018-07-28T14:39:35.309Z,997.9
2018-07-28T14:40:49.264Z,997.96
2018-07-28T14:42:03.990Z,997.99
2018-07-28T14:43:18.065Z,998.01
2018-07-28T14:44:32.559Z,998.05
2018-07-28T14:45:47.557Z,998.13
2018-07-28T14:47:01.781Z,998.1
2018-07-28T14:48:16.468Z,998.15
2018-07-28T14:49:30.716Z,998.22
2018-07-28T14:50:45.189Z,998.24
2018-07-28T14:51:59.451Z,998.21
2018-07-28T14:53:13.761Z,998.25
2018-07-28T14:54:28.614Z,998.24
2018-07-28T14:55:43.388Z,998.15
2018-07-28T14:56:58.410Z,998.12
2018-07-28T14:58:12.658Z,998.16
2018-07-28T14:59:27.014Z,998.18
2018-07-28T15:00:41.415Z,998.12
2018-07-28T15:01:56.076Z,998.22
2018-07-28T15:03:11.000Z,998.18
2018-07-28T15:04:25.610Z,998.18
2018-07-28T15:05:40.370Z,998.2
2018-07-28T15:06:54.882Z,998.21
2018-07-28T15:08:09.946Z,998.23
2018-07-28T15:09:25.110Z,998.19
2018-07-28T15:10:40.097Z,998.2
2018-07-28T15:11:54.799Z,998.19
2018-07-28T15:13:09.128Z,998.26
2018-07-28T15:14:24.011Z,998.29
2018-07-28T15:15:38.247Z,998.37
2018-07-28T15:16:52.331Z,998.31
2018-07-28T15:18:06.918Z,998.3
2018-07-28T15:19:21.312Z,998.3
2018-07-28T15:20:36.372Z,998.28
2018-07-28T15:21:50.808Z,998.34
2018-07-28T15:23:05.284Z,998.34
2018-07-28T15:24:19.490Z,998.34
2018-07-28T15:25:34.327Z,998.35
2018-07-28T15:26:49.285Z,998.31
2018-07-28T15:28:04.133Z,998.33
2018-07-28T15:29:18.338Z,998.33
2018-07-28T15:30:32.682Z,998.31
2018-07-28T15:31:47.440Z,998.29
2018-07-28T15:33:02.265Z,998.26
2018-07-28T15:34:16.773Z,998.26
2018-07-28T15:35:31.638Z,998.25
2018-07-28T15:36:46.313Z,998.23
2018-07-28T15:38:00.374Z,998.25
2018-07-28T15:39:15.060Z,998.26
2018-07-28T15:40:29.611Z,998.23
2018-07-28T15:41:43.791Z,998.26